sensor_id;sensor_type;location;lat;lon;timestamp;temperature;humidity
78571;SHT31;67861;51.966;5.672;2023-02-28T00:01:36;4.9;55.6
78571;SHT31;67861;51.966;5.672;2023-02-28T00:04:09;4.9;55.7
78571;SHT31;67861;51.966;5.672;2023-02-28T00:06:40;4.9;55.5
78571;SHT31;67861;51.966;5.672;2023-02-28T00:09:11;4.9;55.7
78571;SHT31;67861;51.966;5.672;2023-02-28T00:11:40;4.9;55.6
78571;SHT31;67861;51.966;5.672;2023-02-28T00:14:10;4.9;55.8
78571;SHT31;67861;51.966;5.672;2023-02-28T00:16:42;5.0;55.8
78571;SHT31;67861;51.966;5.672;2023-02-28T00:19:12;5.0;55.7
78571;SHT31;67861;51.966;5.672;2023-02-28T00:21:42;5.0;55.9
78571;SHT31;67861;51.966;5.672;2023-02-28T00:24:12;5.0;55.8
78571;SHT31;67861;51.966;5.672;2023-02-28T00:26:41;5.1;55.5
78571;SHT31;67861;51.966;5.672;2023-02-28T00:29:11;5.1;55.6
78571;SHT31;67861;51.966;5.672;2023-02-28T00:31:41;5.1;55.5
78571;SHT31;67861;51.966;5.672;2023-02-28T00:34:10;5.2;55.5
78571;SHT31;67861;51.966;5.672;2023-02-28T00:36:42;5.2;55.8
78571;SHT31;67861;51.966;5.672;2023-02-28T00:39:16;5.2;55.7
78571;SHT31;67861;51.966;5.672;2023-02-28T00:41:46;5.3;55.5
78571;SHT31;67861;51.966;5.672;2023-02-28T00:44:16;5.3;55.5
78571;SHT31;67861;51.966;5.672;2023-02-28T00:46:48;5.3;55.2
78571;SHT31;67861;51.966;5.672;2023-02-28T00:49:19;5.4;55.2
78571;SHT31;67861;51.966;5.672;2023-02-28T00:51:49;5.4;55.0
78571;SHT31;67861;51.966;5.672;2023-02-28T00:54:19;5.4;55.1
78571;SHT31;67861;51.966;5.672;2023-02-28T00:56:49;5.5;54.8
78571;SHT31;67861;51.966;5.672;2023-02-28T00:59:20;5.5;55.0
78571;SHT31;67861;51.966;5.672;2023-02-28T01:01:49;5.5;55.0
78571;SHT31;67861;51.966;5.672;2023-02-28T01:04:21;5.5;54.8
78571;SHT31;67861;51.966;5.672;2023-02-28T01:06:51;5.6;54.8
78571;SHT31;67861;51.966;5.672;2023-02-28T01:09:21;5.6;54.7
78571;SHT31;67861;51.966;5.672;2023-02-28T01:11:51;5.6;54.6
78571;SHT31;67861;51.966;5.672;2023-02-28T01:14:21;5.6;54.5
78571;SHT31;67861;51.966;5.672;2023-02-28T01:16:51;5.6;54.2
78571;SHT31;67861;51.966;5.672;2023-02-28T01:19:21;5.6;54.4
78571;SHT31;67861;51.966;5.672;2023-02-28T01:21:51;5.7;54.1
78571;SHT31;67861;51.966;5.672;2023-02-28T01:24:21;5.7;54.1
78571;SHT31;67861;51.966;5.672;2023-02-28T01:26:50;5.7;54.2
78571;SHT31;67861;51.966;5.672;2023-02-28T01:29:20;5.7;54.5
78571;SHT31;67861;51.966;5.672;2023-02-28T01:31:52;5.7;54.4
78571;SHT31;67861;51.966;5.672;2023-02-28T01:34:22;5.7;54.3
78571;SHT31;67861;51.966;5.672;2023-02-28T01:36:52;5.8;54.5
78571;SHT31;67861;51.966;5.672;2023-02-28T01:39:21;5.8;54.5
78571;SHT31;67861;51.966;5.672;2023-02-28T01:41:53;5.8;54.5
78571;SHT31;67861;51.966;5.672;2023-02-28T01:44:57;5.8;54.5
78571;SHT31;67861;51.966;5.672;2023-02-28T01:47:30;5.8;54.3
78571;SHT31;67861;51.966;5.672;2023-02-28T01:50:04;5.8;54.5
78571;SHT31;67861;51.966;5.672;2023-02-28T01:52:35;5.8;54.4
78571;SHT31;67861;51.966;5.672;2023-02-28T01:55:08;5.8;54.3
78571;SHT31;67861;51.966;5.672;2023-02-28T01:57:43;5.8;54.1
78571;SHT31;67861;51.966;5.672;2023-02-28T02:00:21;5.8;54.2
78571;SHT31;67861;51.966;5.672;2023-02-28T02:02:58;5.8;54.3
78571;SHT31;67861;51.966;5.672;2023-02-28T02:05:30;5.8;54.2
78571;SHT31;67861;51.966;5.672;2023-02-28T02:08:08;5.8;54.2
78571;SHT31;67861;51.966;5.672;2023-02-28T02:10:44;5.8;54.3
78571;SHT31;67861;51.966;5.672;2023-02-28T02:13:27;5.8;54.2
78571;SHT31;67861;51.966;5.672;2023-02-28T02:16:06;5.9;54.3
78571;SHT31;67861;51.966;5.672;2023-02-28T02:18:45;5.9;54.2
78571;SHT31;67861;51.966;5.672;2023-02-28T02:21:50;5.9;53.9
78571;SHT31;67861;51.966;5.672;2023-02-28T02:24:45;5.9;53.9
78571;SHT31;67861;51.966;5.672;2023-02-28T02:27:22;5.9;53.7
78571;SHT31;67861;51.966;5.672;2023-02-28T02:30:25;5.9;53.8
78571;SHT31;67861;51.966;5.672;2023-02-28T02:33:32;6.0;53.4
78571;SHT31;67861;51.966;5.672;2023-02-28T02:36:14;6.0;53.5
78571;SHT31;67861;51.966;5.672;2023-02-28T02:38:52;6.0;53.1
78571;SHT31;67861;51.966;5.672;2023-02-28T02:41:31;6.1;53.5
78571;SHT31;67861;51.966;5.672;2023-02-28T02:44:13;6.1;53.0
78571;SHT31;67861;51.966;5.672;2023-02-28T02:46:47;6.1;53.1
78571;SHT31;67861;51.966;5.672;2023-02-28T02:49:24;6.1;53.1
78571;SHT31;67861;51.966;5.672;2023-02-28T02:51:58;6.1;53.0
78571;SHT31;67861;51.966;5.672;2023-02-28T02:54:36;6.2;52.8
78571;SHT31;67861;51.966;5.672;2023-02-28T02:57:09;6.2;53.2
78571;SHT31;67861;51.966;5.672;2023-02-28T02:59:44;6.2;52.8
78571;SHT31;67861;51.966;5.672;2023-02-28T03:02:17;6.3;52.8
78571;SHT31;67861;51.966;5.672;2023-02-28T03:04:52;6.3;52.9
78571;SHT31;67861;51.966;5.672;2023-02-28T03:07:25;6.3;52.8
78571;SHT31;67861;51.966;5.672;2023-02-28T03:09:56;6.3;52.5
78571;SHT31;67861;51.966;5.672;2023-02-28T03:12:41;6.3;52.7
78571;SHT31;67861;51.966;5.672;2023-02-28T03:15:18;6.3;52.6
78571;SHT31;67861;51.966;5.672;2023-02-28T03:18:03;6.4;52.6
78571;SHT31;67861;51.966;5.672;2023-02-28T03:20:43;6.4;52.5
78571;SHT31;67861;51.966;5.672;2023-02-28T03:23:19;6.4;52.5
78571;SHT31;67861;51.966;5.672;2023-02-28T03:26:01;6.4;52.5
78571;SHT31;67861;51.966;5.672;2023-02-28T03:28:41;6.4;52.7
78571;SHT31;67861;51.966;5.672;2023-02-28T03:31:18;6.3;52.8
78571;SHT31;67861;51.966;5.672;2023-02-28T03:33:58;6.3;52.7
78571;SHT31;67861;51.966;5.672;2023-02-28T03:36:32;6.3;52.9
78571;SHT31;67861;51.966;5.672;2023-02-28T03:39:08;6.3;52.7
78571;SHT31;67861;51.966;5.672;2023-02-28T03:41:43;6.3;52.7
78571;SHT31;67861;51.966;5.672;2023-02-28T03:44:21;6.3;52.0
78571;SHT31;67861;51.966;5.672;2023-02-28T03:46:59;6.3;52.3
78571;SHT31;67861;51.966;5.672;2023-02-28T03:49:34;6.3;52.1
78571;SHT31;67861;51.966;5.672;2023-02-28T03:52:07;6.2;51.7
78571;SHT31;67861;51.966;5.672;2023-02-28T03:54:42;6.2;49.0
78571;SHT31;67861;51.966;5.672;2023-02-28T03:57:22;6.2;50.0
78571;SHT31;67861;51.966;5.672;2023-02-28T03:59:59;6.2;49.9
78571;SHT31;67861;51.966;5.672;2023-02-28T04:02:32;6.2;48.6
78571;SHT31;67861;51.966;5.672;2023-02-28T04:05:01;6.2;49.4
78571;SHT31;67861;51.966;5.672;2023-02-28T04:07:35;6.2;48.4
78571;SHT31;67861;51.966;5.672;2023-02-28T04:10:05;6.2;48.4
78571;SHT31;67861;51.966;5.672;2023-02-28T04:12:36;6.2;48.3
78571;SHT31;67861;51.966;5.672;2023-02-28T04:15:06;6.2;49.0
78571;SHT31;67861;51.966;5.672;2023-02-28T04:17:38;6.3;47.9
78571;SHT31;67861;51.966;5.672;2023-02-28T04:20:08;6.3;48.8
78571;SHT31;67861;51.966;5.672;2023-02-28T04:22:39;6.3;48.7
78571;SHT31;67861;51.966;5.672;2023-02-28T04:25:09;6.3;48.4
78571;SHT31;67861;51.966;5.672;2023-02-28T04:27:39;6.3;49.0
78571;SHT31;67861;51.966;5.672;2023-02-28T04:30:12;6.2;49.1
78571;SHT31;67861;51.966;5.672;2023-02-28T04:32:42;6.2;49.3
78571;SHT31;67861;51.966;5.672;2023-02-28T04:35:12;6.2;48.6
78571;SHT31;67861;51.966;5.672;2023-02-28T04:37:41;6.2;49.1
78571;SHT31;67861;51.966;5.672;2023-02-28T04:40:14;6.2;49.2
78571;SHT31;67861;51.966;5.672;2023-02-28T04:42:44;6.2;49.4
78571;SHT31;67861;51.966;5.672;2023-02-28T04:45:16;6.2;49.6
78571;SHT31;67861;51.966;5.672;2023-02-28T04:47:46;6.1;50.0
78571;SHT31;67861;51.966;5.672;2023-02-28T04:50:20;6.1;50.4
78571;SHT31;67861;51.966;5.672;2023-02-28T04:52:49;6.1;49.6
78571;SHT31;67861;51.966;5.672;2023-02-28T04:55:19;6.1;49.8
78571;SHT31;67861;51.966;5.672;2023-02-28T04:57:49;6.1;50.0
78571;SHT31;67861;51.966;5.672;2023-02-28T05:00:19;6.1;49.8
78571;SHT31;67861;51.966;5.672;2023-02-28T05:02:50;6.1;50.2
78571;SHT31;67861;51.966;5.672;2023-02-28T05:05:19;6.1;50.5
78571;SHT31;67861;51.966;5.672;2023-02-28T05:07:51;6.1;50.3
78571;SHT31;67861;51.966;5.672;2023-02-28T05:10:23;6.1;50.4
78571;SHT31;67861;51.966;5.672;2023-02-28T05:12:55;6.1;51.0
78571;SHT31;67861;51.966;5.672;2023-02-28T05:15:25;6.1;50.5
78571;SHT31;67861;51.966;5.672;2023-02-28T05:17:55;6.1;50.4
78571;SHT31;67861;51.966;5.672;2023-02-28T05:20:27;6.1;50.4
78571;SHT31;67861;51.966;5.672;2023-02-28T05:23:03;6.1;50.4
78571;SHT31;67861;51.966;5.672;2023-02-28T05:25:33;6.1;50.8
78571;SHT31;67861;51.966;5.672;2023-02-28T05:28:04;6.1;50.3
78571;SHT31;67861;51.966;5.672;2023-02-28T05:30:36;6.1;50.4
78571;SHT31;67861;51.966;5.672;2023-02-28T05:33:06;6.1;50.3
78571;SHT31;67861;51.966;5.672;2023-02-28T05:35:38;6.1;50.5
78571;SHT31;67861;51.966;5.672;2023-02-28T05:38:08;6.1;50.5
78571;SHT31;67861;51.966;5.672;2023-02-28T05:40:39;6.1;51.2
78571;SHT31;67861;51.966;5.672;2023-02-28T05:43:13;6.1;51.0
78571;SHT31;67861;51.966;5.672;2023-02-28T05:45:43;6.1;50.6
78571;SHT31;67861;51.966;5.672;2023-02-28T05:48:17;6.1;50.5
78571;SHT31;67861;51.966;5.672;2023-02-28T05:50:49;6.1;50.6
78571;SHT31;67861;51.966;5.672;2023-02-28T05:53:21;6.1;50.6
78571;SHT31;67861;51.966;5.672;2023-02-28T05:55:51;6.2;50.3
78571;SHT31;67861;51.966;5.672;2023-02-28T05:58:21;6.2;49.9
78571;SHT31;67861;51.966;5.672;2023-02-28T06:00:53;6.2;50.8
78571;SHT31;67861;51.966;5.672;2023-02-28T06:03:22;6.2;50.0
78571;SHT31;67861;51.966;5.672;2023-02-28T06:05:52;6.2;50.6
78571;SHT31;67861;51.966;5.672;2023-02-28T06:08:22;6.2;50.8
78571;SHT31;67861;51.966;5.672;2023-02-28T06:10:52;6.2;50.4
78571;SHT31;67861;51.966;5.672;2023-02-28T06:13:22;6.2;50.2
78571;SHT31;67861;51.966;5.672;2023-02-28T06:15:52;6.2;50.8
78571;SHT31;67861;51.966;5.672;2023-02-28T06:18:22;6.2;51.5
78571;SHT31;67861;51.966;5.672;2023-02-28T06:20:55;6.2;51.2
78571;SHT31;67861;51.966;5.672;2023-02-28T06:23:29;6.2;50.9
78571;SHT31;67861;51.966;5.672;2023-02-28T06:25:59;6.3;50.2
78571;SHT31;67861;51.966;5.672;2023-02-28T06:28:32;6.2;50.3
78571;SHT31;67861;51.966;5.672;2023-02-28T06:31:08;6.3;50.8
78571;SHT31;67861;51.966;5.672;2023-02-28T06:33:39;6.3;50.3
78571;SHT31;67861;51.966;5.672;2023-02-28T06:36:11;6.3;49.8
78571;SHT31;67861;51.966;5.672;2023-02-28T06:38:41;6.3;49.7
78571;SHT31;67861;51.966;5.672;2023-02-28T06:41:14;6.3;49.6
78571;SHT31;67861;51.966;5.672;2023-02-28T06:43:44;6.3;49.4
78571;SHT31;67861;51.966;5.672;2023-02-28T06:46:14;6.3;49.4
78571;SHT31;67861;51.966;5.672;2023-02-28T06:48:46;6.3;49.4
78571;SHT31;67861;51.966;5.672;2023-02-28T06:51:18;6.3;49.5
78571;SHT31;67861;51.966;5.672;2023-02-28T06:53:52;6.3;49.6
78571;SHT31;67861;51.966;5.672;2023-02-28T06:56:24;6.3;49.8
78571;SHT31;67861;51.966;5.672;2023-02-28T06:58:54;6.3;49.9
78571;SHT31;67861;51.966;5.672;2023-02-28T07:01:24;6.3;49.6
78571;SHT31;67861;51.966;5.672;2023-02-28T07:03:55;6.3;50.1
78571;SHT31;67861;51.966;5.672;2023-02-28T07:06:25;6.3;50.4
78571;SHT31;67861;51.966;5.672;2023-02-28T07:08:55;6.3;50.8
78571;SHT31;67861;51.966;5.672;2023-02-28T07:11:26;6.3;50.3
78571;SHT31;67861;51.966;5.672;2023-02-28T07:13:57;6.3;49.4
78571;SHT31;67861;51.966;5.672;2023-02-28T07:16:30;6.3;49.5
78571;SHT31;67861;51.966;5.672;2023-02-28T07:19:00;6.3;49.0
78571;SHT31;67861;51.966;5.672;2023-02-28T07:21:29;6.4;49.3
78571;SHT31;67861;51.966;5.672;2023-02-28T07:24:02;6.4;48.7
78571;SHT31;67861;51.966;5.672;2023-02-28T07:26:32;6.4;49.3
78571;SHT31;67861;51.966;5.672;2023-02-28T07:29:02;6.4;49.3
78571;SHT31;67861;51.966;5.672;2023-02-28T07:31:32;6.5;48.8
78571;SHT31;67861;51.966;5.672;2023-02-28T07:34:03;6.5;48.9
78571;SHT31;67861;51.966;5.672;2023-02-28T07:36:33;6.5;49.8
78571;SHT31;67861;51.966;5.672;2023-02-28T07:39:02;6.5;48.8
78571;SHT31;67861;51.966;5.672;2023-02-28T07:41:32;6.5;49.0
78571;SHT31;67861;51.966;5.672;2023-02-28T07:44:08;6.6;48.5
78571;SHT31;67861;51.966;5.672;2023-02-28T07:46:38;6.6;48.5
78571;SHT31;67861;51.966;5.672;2023-02-28T07:49:08;6.6;48.8
78571;SHT31;67861;51.966;5.672;2023-02-28T07:51:38;6.6;48.3
78571;SHT31;67861;51.966;5.672;2023-02-28T07:54:08;6.7;49.0
78571;SHT31;67861;51.966;5.672;2023-02-28T07:56:37;6.7;48.3
78571;SHT31;67861;51.966;5.672;2023-02-28T07:59:07;6.8;46.2
78571;SHT31;67861;51.966;5.672;2023-02-28T08:01:39;6.8;46.1
78571;SHT31;67861;51.966;5.672;2023-02-28T08:04:08;6.9;45.1
78571;SHT31;67861;51.966;5.672;2023-02-28T08:06:38;6.9;43.6
78571;SHT31;67861;51.966;5.672;2023-02-28T08:09:11;7.0;42.7
78571;SHT31;67861;51.966;5.672;2023-02-28T08:11:41;7.0;42.0
78571;SHT31;67861;51.966;5.672;2023-02-28T08:14:11;7.1;40.2
78571;SHT31;67861;51.966;5.672;2023-02-28T08:16:41;7.1;40.2
78571;SHT31;67861;51.966;5.672;2023-02-28T08:19:11;7.2;40.0
78571;SHT31;67861;51.966;5.672;2023-02-28T08:21:40;7.2;39.8
78571;SHT31;67861;51.966;5.672;2023-02-28T08:24:10;7.3;38.8
78571;SHT31;67861;51.966;5.672;2023-02-28T08:26:40;7.3;39.7
78571;SHT31;67861;51.966;5.672;2023-02-28T08:29:10;7.3;39.8
78571;SHT31;67861;51.966;5.672;2023-02-28T08:31:41;7.4;38.6
78571;SHT31;67861;51.966;5.672;2023-02-28T08:34:13;7.4;39.0
78571;SHT31;67861;51.966;5.672;2023-02-28T08:36:44;7.4;39.7
78571;SHT31;67861;51.966;5.672;2023-02-28T08:39:16;7.5;39.1
78571;SHT31;67861;51.966;5.672;2023-02-28T08:41:47;7.5;37.6
78571;SHT31;67861;51.966;5.672;2023-02-28T08:44:17;7.5;37.5
78571;SHT31;67861;51.966;5.672;2023-02-28T08:46:46;7.6;38.1
78571;SHT31;67861;51.966;5.672;2023-02-28T08:49:16;7.6;38.5
78571;SHT31;67861;51.966;5.672;2023-02-28T08:51:46;7.6;37.8
78571;SHT31;67861;51.966;5.672;2023-02-28T08:54:15;7.7;38.2
78571;SHT31;67861;51.966;5.672;2023-02-28T08:56:47;7.7;37.4
78571;SHT31;67861;51.966;5.672;2023-02-28T08:59:16;7.7;37.4
78571;SHT31;67861;51.966;5.672;2023-02-28T09:01:49;7.7;38.5
78571;SHT31;67861;51.966;5.672;2023-02-28T09:04:19;7.8;36.2
78571;SHT31;67861;51.966;5.672;2023-02-28T09:06:48;7.8;35.2
78571;SHT31;67861;51.966;5.672;2023-02-28T09:09:18;7.8;34.2
78571;SHT31;67861;51.966;5.672;2023-02-28T09:11:48;7.7;34.9
78571;SHT31;67861;51.966;5.672;2023-02-28T09:14:18;7.7;35.2
78571;SHT31;67861;51.966;5.672;2023-02-28T09:16:48;7.7;35.6
78571;SHT31;67861;51.966;5.672;2023-02-28T09:19:17;7.7;35.8
78571;SHT31;67861;51.966;5.672;2023-02-28T09:21:47;7.7;35.3
78571;SHT31;67861;51.966;5.672;2023-02-28T09:24:19;7.7;35.6
78571;SHT31;67861;51.966;5.672;2023-02-28T09:26:49;7.8;34.8
78571;SHT31;67861;51.966;5.672;2023-02-28T09:29:19;7.8;34.6
78571;SHT31;67861;51.966;5.672;2023-02-28T09:31:51;7.9;34.5
78571;SHT31;67861;51.966;5.672;2023-02-28T09:34:21;7.9;33.7
78571;SHT31;67861;51.966;5.672;2023-02-28T09:36:51;8.0;34.0
78571;SHT31;67861;51.966;5.672;2023-02-28T09:39:22;8.0;34.2
78571;SHT31;67861;51.966;5.672;2023-02-28T09:41:55;8.1;34.0
78571;SHT31;67861;51.966;5.672;2023-02-28T09:44:31;8.1;34.2
78571;SHT31;67861;51.966;5.672;2023-02-28T09:47:12;8.2;34.0
78571;SHT31;67861;51.966;5.672;2023-02-28T09:49:46;8.2;33.2
78571;SHT31;67861;51.966;5.672;2023-02-28T09:52:19;8.3;33.3
78571;SHT31;67861;51.966;5.672;2023-02-28T09:54:49;8.3;33.6
78571;SHT31;67861;51.966;5.672;2023-02-28T09:57:27;8.4;33.6
78571;SHT31;67861;51.966;5.672;2023-02-28T10:00:10;8.5;33.8
78571;SHT31;67861;51.966;5.672;2023-02-28T10:03:52;8.6;33.4
78571;SHT31;67861;51.966;5.672;2023-02-28T10:06:28;8.7;32.3
78571;SHT31;67861;51.966;5.672;2023-02-28T10:09:03;8.7;32.6
78571;SHT31;67861;51.966;5.672;2023-02-28T10:11:41;8.8;31.5
78571;SHT31;67861;51.966;5.672;2023-02-28T10:14:16;8.9;31.4
78571;SHT31;67861;51.966;5.672;2023-02-28T10:16:50;8.9;32.3
78571;SHT31;67861;51.966;5.672;2023-02-28T10:19:29;9.0;32.6
78571;SHT31;67861;51.966;5.672;2023-02-28T10:22:04;9.0;31.1
78571;SHT31;67861;51.966;5.672;2023-02-28T10:24:40;9.1;31.3
78571;SHT31;67861;51.966;5.672;2023-02-28T10:27:15;9.2;31.0
78571;SHT31;67861;51.966;5.672;2023-02-28T10:29:49;9.2;32.4
78571;SHT31;67861;51.966;5.672;2023-02-28T10:32:22;9.3;31.3
78571;SHT31;67861;51.966;5.672;2023-02-28T10:35:00;9.3;31.6
78571;SHT31;67861;51.966;5.672;2023-02-28T10:37:30;9.4;30.4
78571;SHT31;67861;51.966;5.672;2023-02-28T10:40:06;9.5;32.0
78571;SHT31;67861;51.966;5.672;2023-02-28T10:42:36;9.5;30.3
78571;SHT31;67861;51.966;5.672;2023-02-28T10:45:10;9.5;31.4
78571;SHT31;67861;51.966;5.672;2023-02-28T10:47:56;9.6;31.4
78571;SHT31;67861;51.966;5.672;2023-02-28T10:50:43;9.6;31.7
78571;SHT31;67861;51.966;5.672;2023-02-28T10:53:28;9.6;32.0
78571;SHT31;67861;51.966;5.672;2023-02-28T10:56:02;9.7;31.8
78571;SHT31;67861;51.966;5.672;2023-02-28T10:58:47;9.8;31.3
78571;SHT31;67861;51.966;5.672;2023-02-28T11:01:21;9.9;31.2
78571;SHT31;67861;51.966;5.672;2023-02-28T11:03:52;9.9;31.1
78571;SHT31;67861;51.966;5.672;2023-02-28T11:06:26;10.0;30.6
78571;SHT31;67861;51.966;5.672;2023-02-28T11:09:00;10.0;29.9
78571;SHT31;67861;51.966;5.672;2023-02-28T11:11:43;10.0;31.1
78571;SHT31;67861;51.966;5.672;2023-02-28T11:14:21;10.1;30.6
78571;SHT31;67861;51.966;5.672;2023-02-28T11:16:54;10.1;31.2
78571;SHT31;67861;51.966;5.672;2023-02-28T11:19:37;10.2;31.6
78571;SHT31;67861;51.966;5.672;2023-02-28T11:22:08;10.3;31.3
78571;SHT31;67861;51.966;5.672;2023-02-28T11:24:43;10.4;30.9
78571;SHT31;67861;51.966;5.672;2023-02-28T11:27:45;10.4;30.0
78571;SHT31;67861;51.966;5.672;2023-02-28T11:30:31;10.5;30.7
78571;SHT31;67861;51.966;5.672;2023-02-28T11:33:21;10.5;30.1
78571;SHT31;67861;51.966;5.672;2023-02-28T11:35:54;10.5;29.9
78571;SHT31;67861;51.966;5.672;2023-02-28T11:38:28;10.5;29.7
78571;SHT31;67861;51.966;5.672;2023-02-28T11:41:17;10.6;31.0
78571;SHT31;67861;51.966;5.672;2023-02-28T11:44:08;10.6;30.7
78571;SHT31;67861;51.966;5.672;2023-02-28T11:46:46;10.6;31.2
78571;SHT31;67861;51.966;5.672;2023-02-28T11:49:30;10.6;30.7
78571;SHT31;67861;51.966;5.672;2023-02-28T11:52:14;10.6;30.2
78571;SHT31;67861;51.966;5.672;2023-02-28T11:55:03;10.6;30.4
78571;SHT31;67861;51.966;5.672;2023-02-28T11:57:56;10.6;30.4
78571;SHT31;67861;51.966;5.672;2023-02-28T12:00:48;10.7;30.3
78571;SHT31;67861;51.966;5.672;2023-02-28T12:03:27;10.7;30.0
78571;SHT31;67861;51.966;5.672;2023-02-28T12:06:10;10.7;30.9
78571;SHT31;67861;51.966;5.672;2023-02-28T12:08:57;10.7;30.2
78571;SHT31;67861;51.966;5.672;2023-02-28T12:11:37;10.8;30.0
78571;SHT31;67861;51.966;5.672;2023-02-28T12:14:34;10.8;29.3
78571;SHT31;67861;51.966;5.672;2023-02-28T12:17:19;10.9;29.1
78571;SHT31;67861;51.966;5.672;2023-02-28T12:20:02;10.9;28.4
78571;SHT31;67861;51.966;5.672;2023-02-28T12:22:41;11.0;28.3
78571;SHT31;67861;51.966;5.672;2023-02-28T12:25:35;11.0;28.7
78571;SHT31;67861;51.966;5.672;2023-02-28T12:28:11;11.1;28.9
78571;SHT31;67861;51.966;5.672;2023-02-28T12:30:51;11.1;28.5
78571;SHT31;67861;51.966;5.672;2023-02-28T12:33:27;11.1;28.6
78571;SHT31;67861;51.966;5.672;2023-02-28T12:36:07;11.2;28.4
78571;SHT31;67861;51.966;5.672;2023-02-28T12:38:44;11.2;29.6
78571;SHT31;67861;51.966;5.672;2023-02-28T12:41:18;11.2;28.8
78571;SHT31;67861;51.966;5.672;2023-02-28T12:43:55;11.3;28.4
78571;SHT31;67861;51.966;5.672;2023-02-28T12:46:34;11.3;27.9
78571;SHT31;67861;51.966;5.672;2023-02-28T12:49:12;11.3;27.9
78571;SHT31;67861;51.966;5.672;2023-02-28T12:51:46;11.3;28.1
78571;SHT31;67861;51.966;5.672;2023-02-28T12:54:23;11.4;28.2
78571;SHT31;67861;51.966;5.672;2023-02-28T12:57:05;11.4;28.6
78571;SHT31;67861;51.966;5.672;2023-02-28T12:59:43;11.4;28.6
78571;SHT31;67861;51.966;5.672;2023-02-28T13:02:47;11.4;28.8
78571;SHT31;67861;51.966;5.672;2023-02-28T13:12:16;11.6;28.3
78571;SHT31;67861;51.966;5.672;2023-02-28T13:14:49;11.7;27.5
78571;SHT31;67861;51.966;5.672;2023-02-28T13:17:21;11.7;26.0
78571;SHT31;67861;51.966;5.672;2023-02-28T13:19:59;11.7;26.7
78571;SHT31;67861;51.966;5.672;2023-02-28T13:22:40;11.8;26.5
78571;SHT31;67861;51.966;5.672;2023-02-28T13:32:27;11.9;27.5
78571;SHT31;67861;51.966;5.672;2023-02-28T13:35:43;11.9;26.9
78571;SHT31;67861;51.966;5.672;2023-02-28T13:38:31;11.9;27.5
78571;SHT31;67861;51.966;5.672;2023-02-28T13:41:46;12.0;26.2
78571;SHT31;67861;51.966;5.672;2023-02-28T13:44:21;11.9;27.1
78571;SHT31;67861;51.966;5.672;2023-02-28T13:47:21;11.9;26.8
78571;SHT31;67861;51.966;5.672;2023-02-28T13:49:53;11.9;27.3
78571;SHT31;67861;51.966;5.672;2023-02-28T13:52:24;11.9;26.3
78571;SHT31;67861;51.966;5.672;2023-02-28T13:55:24;11.9;28.1
78571;SHT31;67861;51.966;5.672;2023-02-28T13:58:43;11.9;27.8
78571;SHT31;67861;51.966;5.672;2023-02-28T14:01:45;11.9;27.7
78571;SHT31;67861;51.966;5.672;2023-02-28T14:04:50;11.9;26.3
78571;SHT31;67861;51.966;5.672;2023-02-28T14:07:27;11.9;26.4
78571;SHT31;67861;51.966;5.672;2023-02-28T14:10:02;11.9;25.8
78571;SHT31;67861;51.966;5.672;2023-02-28T14:12:55;12.0;27.1
78571;SHT31;67861;51.966;5.672;2023-02-28T14:15:38;12.0;28.8
78571;SHT31;67861;51.966;5.672;2023-02-28T14:18:15;12.1;28.2
78571;SHT31;67861;51.966;5.672;2023-02-28T14:20:49;12.1;27.5
78571;SHT31;67861;51.966;5.672;2023-02-28T14:25:03;12.2;26.8
78571;SHT31;67861;51.966;5.672;2023-02-28T14:27:41;12.3;27.2
78571;SHT31;67861;51.966;5.672;2023-02-28T14:31:13;12.4;28.0
78571;SHT31;67861;51.966;5.672;2023-02-28T14:33:59;12.4;27.1
78571;SHT31;67861;51.966;5.672;2023-02-28T14:36:37;12.5;26.1
78571;SHT31;67861;51.966;5.672;2023-02-28T14:39:14;12.5;27.3
78571;SHT31;67861;51.966;5.672;2023-02-28T14:41:45;12.5;26.3
78571;SHT31;67861;51.966;5.672;2023-02-28T14:44:18;12.6;26.3
78571;SHT31;67861;51.966;5.672;2023-02-28T14:46:50;12.6;27.2
78571;SHT31;67861;51.966;5.672;2023-02-28T14:49:26;12.6;27.0
78571;SHT31;67861;51.966;5.672;2023-02-28T14:52:15;12.6;26.0
78571;SHT31;67861;51.966;5.672;2023-02-28T14:54:43;12.5;26.0
78571;SHT31;67861;51.966;5.672;2023-02-28T14:57:24;12.5;26.4
78571;SHT31;67861;51.966;5.672;2023-02-28T15:00:06;12.5;25.6
78571;SHT31;67861;51.966;5.672;2023-02-28T15:02:40;12.5;25.8
78571;SHT31;67861;51.966;5.672;2023-02-28T15:05:22;12.5;26.2
78571;SHT31;67861;51.966;5.672;2023-02-28T15:08:03;12.5;27.1
78571;SHT31;67861;51.966;5.672;2023-02-28T15:10:34;12.6;26.7
78571;SHT31;67861;51.966;5.672;2023-02-28T15:13:07;12.6;27.7
78571;SHT31;67861;51.966;5.672;2023-02-28T15:15:42;12.6;27.3
78571;SHT31;67861;51.966;5.672;2023-02-28T15:18:18;12.6;26.3
78571;SHT31;67861;51.966;5.672;2023-02-28T15:20:51;12.6;24.8
78571;SHT31;67861;51.966;5.672;2023-02-28T15:23:22;12.6;25.6
78571;SHT31;67861;51.966;5.672;2023-02-28T15:25:53;12.6;24.7
78571;SHT31;67861;51.966;5.672;2023-02-28T15:28:25;12.5;26.2
78571;SHT31;67861;51.966;5.672;2023-02-28T15:30:58;12.5;25.6
78571;SHT31;67861;51.966;5.672;2023-02-28T15:33:30;12.5;25.8
78571;SHT31;67861;51.966;5.672;2023-02-28T15:36:15;12.4;24.6
78571;SHT31;67861;51.966;5.672;2023-02-28T15:38:51;12.4;26.5
78571;SHT31;67861;51.966;5.672;2023-02-28T15:41:28;12.3;26.9
78571;SHT31;67861;51.966;5.672;2023-02-28T15:44:23;12.3;26.0
78571;SHT31;67861;51.966;5.672;2023-02-28T15:47:01;12.3;26.7
78571;SHT31;67861;51.966;5.672;2023-02-28T15:49:39;12.3;26.4
78571;SHT31;67861;51.966;5.672;2023-02-28T15:52:14;12.2;26.3
78571;SHT31;67861;51.966;5.672;2023-02-28T15:54:46;12.2;25.8
78571;SHT31;67861;51.966;5.672;2023-02-28T15:57:21;12.2;25.7
78571;SHT31;67861;51.966;5.672;2023-02-28T15:59:54;12.2;26.2
78571;SHT31;67861;51.966;5.672;2023-02-28T16:02:30;12.2;26.3
78571;SHT31;67861;51.966;5.672;2023-02-28T16:05:19;12.2;26.5
78571;SHT31;67861;51.966;5.672;2023-02-28T16:07:56;12.1;25.8
78571;SHT31;67861;51.966;5.672;2023-02-28T16:10:28;12.1;26.3
78571;SHT31;67861;51.966;5.672;2023-02-28T16:13:01;12.1;25.6
78571;SHT31;67861;51.966;5.672;2023-02-28T16:15:37;12.0;25.2
78571;SHT31;67861;51.966;5.672;2023-02-28T16:18:11;12.0;25.7
78571;SHT31;67861;51.966;5.672;2023-02-28T16:20:40;11.9;26.0
78571;SHT31;67861;51.966;5.672;2023-02-28T16:23:12;11.8;25.8
78571;SHT31;67861;51.966;5.672;2023-02-28T16:25:43;11.8;26.4
78571;SHT31;67861;51.966;5.672;2023-02-28T16:28:18;11.7;26.8
78571;SHT31;67861;51.966;5.672;2023-02-28T16:30:51;11.7;26.5
78571;SHT31;67861;51.966;5.672;2023-02-28T16:33:21;11.6;26.3
78571;SHT31;67861;51.966;5.672;2023-02-28T16:35:53;11.6;26.8
78571;SHT31;67861;51.966;5.672;2023-02-28T16:38:22;11.5;26.4
78571;SHT31;67861;51.966;5.672;2023-02-28T16:40:55;11.5;27.1
78571;SHT31;67861;51.966;5.672;2023-02-28T16:43:28;11.4;27.3
78571;SHT31;67861;51.966;5.672;2023-02-28T16:45:58;11.3;27.2
78571;SHT31;67861;51.966;5.672;2023-02-28T16:48:29;11.3;27.6
78571;SHT31;67861;51.966;5.672;2023-02-28T16:51:00;11.2;28.1
78571;SHT31;67861;51.966;5.672;2023-02-28T16:53:31;11.1;28.1
78571;SHT31;67861;51.966;5.672;2023-02-28T16:56:02;11.1;27.6
78571;SHT31;67861;51.966;5.672;2023-02-28T16:58:34;11.1;28.6
78571;SHT31;67861;51.966;5.672;2023-02-28T17:01:07;11.0;27.9
78571;SHT31;67861;51.966;5.672;2023-02-28T17:03:39;10.9;28.8
78571;SHT31;67861;51.966;5.672;2023-02-28T17:06:17;10.9;28.5
78571;SHT31;67861;51.966;5.672;2023-02-28T17:08:47;10.8;28.6
78571;SHT31;67861;51.966;5.672;2023-02-28T17:11:18;10.8;28.4
78571;SHT31;67861;51.966;5.672;2023-02-28T17:13:48;10.7;29.4
78571;SHT31;67861;51.966;5.672;2023-02-28T17:16:24;10.6;29.4
78571;SHT31;67861;51.966;5.672;2023-02-28T17:18:58;10.6;29.4
78571;SHT31;67861;51.966;5.672;2023-02-28T17:21:30;10.5;29.6